Time;durP1;ratioP1;P1;durP2;ratioP2;P2;SDS_P1;SDS_P2;PMS_P1;PMS_P2;Temp;Humidity;BMP_temperature;BMP_pressure;BME280_temperature;BME280_humidity;BME280_pressure;Samples;Min_cycle;Max_cycle;Signal;HPM_P1;HPM_P2
2021/06/13 00:00:17;;;;;;;;;;;19.30;44.30;;;;;;1481327;40;20004;-64
2021/06/13 00:01:38;;;;;;;;;;;19.30;44.30;;;;;;1481227;40;20050;-65
2021/06/13 00:02:59;;;;;;;;;;;19.20;44.30;;;;;;1480822;40;19947;-65
2021/06/13 00:04:19;;;;;;;;;;;19.20;44.20;;;;;;1480648;40;19947;-67
2021/06/13 00:05:40;;;;;;;;;;;19.20;44.30;;;;;;1482012;40;20037;-66
2021/06/13 00:07:01;;;;;;;;;;;19.20;44.20;;;;;;1481001;40;19947;-66
2021/06/13 00:08:22;;;;;;;;;;;19.20;44.30;;;;;;1481533;40;19948;-66
2021/06/13 00:09:43;;;;;;;;;;;19.20;44.30;;;;;;1480676;40;19966;-67
2021/06/13 00:11:03;;;;;;;;;;;19.20;44.40;;;;;;1481838;40;19990;-67
2021/06/13 00:12:24;;;;;;;;;;;19.10;44.30;;;;;;1481555;40;19933;-64
2021/06/13 00:13:45;;;;;;;;;;;19.20;44.40;;;;;;1480909;40;20280;-65
2021/06/13 00:15:07;;;;;;;;;;;19.10;44.40;;;;;;1480677;40;19940;-65
2021/06/13 00:16:28;;;;;;;;;;;19.20;44.50;;;;;;1482068;40;19967;-64
2021/06/13 00:17:49;;;;;;;;;;;19.10;44.60;;;;;;1481468;40;20158;-64
2021/06/13 00:19:10;;;;;;;;;;;19.10;44.60;;;;;;1480531;40;19968;-64
2021/06/13 00:20:31;;;;;;;;;;;19.10;44.40;;;;;;1480440;40;19940;-65
2021/06/13 00:21:51;;;;;;;;;;;19.10;44.40;;;;;;1481092;40;19948;-65
2021/06/13 00:23:12;;;;;;;;;;;19.10;44.50;;;;;;1481680;40;19941;-65
2021/06/13 00:24:33;;;;;;;;;;;19.10;44.60;;;;;;1482009;40;19936;-65
2021/06/13 00:25:54;;;;;;;;;;;19.10;44.60;;;;;;1481760;40;20502;-65
2021/06/13 00:27:15;;;;;;;;;;;19.10;44.50;;;;;;1481877;40;20256;-65
2021/06/13 00:28:36;;;;;;;;;;;19.10;44.60;;;;;;1481704;40;19948;-65
2021/06/13 00:29:57;;;;;;;;;;;19.10;44.50;;;;;;1482397;40;19948;-65
2021/06/13 00:31:17;;;;;;;;;;;19.10;44.50;;;;;;1481474;40;19951;-65
2021/06/13 00:32:39;;;;;;;;;;;19.10;44.60;;;;;;1481720;40;19936;-65
2021/06/13 00:34:00;;;;;;;;;;;19.10;44.60;;;;;;1481814;40;19944;-65
2021/06/13 00:35:21;;;;;;;;;;;19.10;44.70;;;;;;1482478;40;20220;-65
2021/06/13 00:36:42;;;;;;;;;;;19.00;44.60;;;;;;1481405;40;19940;-65
2021/06/13 00:38:03;;;;;;;;;;;19.00;44.70;;;;;;1481613;40;19947;-66
2021/06/13 00:39:24;;;;;;;;;;;19.00;44.70;;;;;;1481429;40;19976;-66
2021/06/13 00:40:45;;;;;;;;;;;19.00;44.80;;;;;;1481081;40;20268;-66
2021/06/13 00:42:06;;;;;;;;;;;19.00;44.60;;;;;;1481489;40;19940;-64
2021/06/13 00:43:26;;;;;;;;;;;19.00;44.50;;;;;;1482863;40;19946;-66
2021/06/13 00:44:47;;;;;;;;;;;19.00;44.40;;;;;;1481716;40;20033;-65
2021/06/13 00:46:08;;;;;;;;;;;19.00;44.50;;;;;;1481885;40;19936;-65
2021/06/13 00:47:29;;;;;;;;;;;19.00;44.60;;;;;;1480865;40;20122;-65
2021/06/13 00:48:49;;;;;;;;;;;19.00;44.70;;;;;;1481010;40;19944;-65
2021/06/13 00:50:13;;;;;;;;;;;19.00;44.80;;;;;;1481155;40;19944;-65
2021/06/13 00:51:34;;;;;;;;;;;19.00;44.90;;;;;;1480429;40;19940;-65
2021/06/13 00:52:57;;;;;;;;;;;19.00;44.90;;;;;;1480566;40;20415;-65
2021/06/13 00:54:18;;;;;;;;;;;19.00;44.90;;;;;;1480936;40;19940;-65
2021/06/13 00:55:39;;;;;;;;;;;18.90;44.90;;;;;;1480642;40;19947;-65
2021/06/13 00:57:00;;;;;;;;;;;19.00;44.80;;;;;;1480662;40;19944;-65
2021/06/13 00:58:20;;;;;;;;;;;19.00;45.00;;;;;;1481769;40;19944;-65
2021/06/13 00:59:41;;;;;;;;;;;19.00;45.10;;;;;;1481319;40;19947;-65
2021/06/13 01:01:02;;;;;;;;;;;19.00;45.00;;;;;;1480748;40;19963;-65
2021/06/13 01:02:23;;;;;;;;;;;19.00;45.00;;;;;;1481114;40;19948;-65
2021/06/13 01:03:45;;;;;;;;;;;19.00;45.00;;;;;;1481783;40;19936;-65
2021/06/13 01:05:07;;;;;;;;;;;19.00;44.90;;;;;;1480594;40;20252;-65
2021/06/13 01:06:37;;;;;;;;;;;19.00;45.00;;;;;;1480510;40;19936;-65
2021/06/13 01:08:03;;;;;;;;;;;19.00;44.90;;;;;;1480449;40;19948;-65
2021/06/13 01:09:24;;;;;;;;;;;18.90;44.80;;;;;;1481309;40;20066;-65
2021/06/13 01:10:56;;;;;;;;;;;18.90;44.60;;;;;;1481357;40;19945;-65
2021/06/13 01:12:24;;;;;;;;;;;18.90;44.80;;;;;;1481610;40;20978;-65
2021/06/13 01:13:45;;;;;;;;;;;18.90;44.60;;;;;;1481272;40;19947;-65
2021/06/13 01:15:09;;;;;;;;;;;18.90;44.50;;;;;;1481602;40;19983;-65
2021/06/13 01:16:36;;;;;;;;;;;18.90;44.60;;;;;;1480657;40;20040;-65
2021/06/13 01:18:10;;;;;;;;;;;18.90;44.80;;;;;;1480649;40;20031;-65
2021/06/13 01:19:40;;;;;;;;;;;18.90;45.00;;;;;;1480393;40;20279;-65
2021/06/13 01:21:02;;;;;;;;;;;18.90;45.00;;;;;;1481540;40;19944;-65
2021/06/13 01:22:26;;;;;;;;;;;18.80;45.00;;;;;;1481390;40;20466;-65
2021/06/13 01:24:03;;;;;;;;;;;18.90;45.10;;;;;;1480001;40;19944;-65
2021/06/13 01:25:42;;;;;;;;;;;18.80;45.20;;;;;;1480814;40;19986;-66
2021/06/13 01:27:03;;;;;;;;;;;18.80;45.30;;;;;;1480857;40;19972;-65
2021/06/13 01:28:43;;;;;;;;;;;18.80;45.50;;;;;;1480666;40;21072;-65
2021/06/13 01:30:07;;;;;;;;;;;18.70;45.10;;;;;;1477580;40;20463;-65
2021/06/13 01:31:32;;;;;;;;;;;18.70;45.10;;;;;;1479881;40;19940;-65
2021/06/13 01:32:53;;;;;;;;;;;18.70;45.20;;;;;;1481513;40;20014;-65
2021/06/13 01:34:25;;;;;;;;;;;18.70;45.00;;;;;;1481734;40;19940;-65
2021/06/13 01:35:47;;;;;;;;;;;18.60;45.00;;;;;;1478019;40;19948;-65
2021/06/13 01:37:10;;;;;;;;;;;18.60;44.90;;;;;;1481067;40;19954;-65
2021/06/13 01:38:32;;;;;;;;;;;18.60;44.80;;;;;;1477600;40;19972;-65
2021/06/13 01:39:56;;;;;;;;;;;18.50;44.70;;;;;;1480792;40;19956;-65
2021/06/13 01:41:23;;;;;;;;;;;18.50;45.40;;;;;;1481379;40;19944;-65
2021/06/13 01:42:46;;;;;;;;;;;18.50;44.90;;;;;;1481264;40;19947;-65
2021/06/13 01:44:08;;;;;;;;;;;18.50;44.90;;;;;;1481016;40;19944;-65
2021/06/13 01:45:30;;;;;;;;;;;18.50;45.00;;;;;;1481340;40;19944;-65
2021/06/13 01:46:51;;;;;;;;;;;18.50;45.00;;;;;;1481898;40;19936;-65
2021/06/13 01:48:13;;;;;;;;;;;18.40;44.70;;;;;;1481418;40;19936;-65
2021/06/13 01:49:34;;;;;;;;;;;18.40;44.80;;;;;;1481623;40;19940;-65
2021/06/13 01:50:58;;;;;;;;;;;18.40;44.90;;;;;;1481255;40;20037;-65
2021/06/13 01:52:20;;;;;;;;;;;18.40;44.80;;;;;;1481665;40;19951;-66
2021/06/13 01:53:43;;;;;;;;;;;18.40;45.00;;;;;;1481499;40;19975;-65
2021/06/13 01:55:04;;;;;;;;;;;18.40;45.20;;;;;;1481239;40;19941;-65
2021/06/13 01:56:26;;;;;;;;;;;18.30;45.20;;;;;;1482041;40;19944;-65
2021/06/13 01:57:47;;;;;;;;;;;18.30;45.30;;;;;;1481573;40;19952;-66
2021/06/13 01:59:08;;;;;;;;;;;18.30;45.20;;;;;;1480869;40;20066;-65
2021/06/13 02:00:29;;;;;;;;;;;18.30;45.40;;;;;;1481555;40;19936;-65
2021/06/13 02:01:51;;;;;;;;;;;18.30;45.30;;;;;;1480961;40;19936;-65
2021/06/13 02:03:12;;;;;;;;;;;18.30;45.50;;;;;;1482529;40;21192;-65
2021/06/13 02:04:34;;;;;;;;;;;18.30;45.30;;;;;;1477347;40;19937;-65
2021/06/13 02:05:56;;;;;;;;;;;18.30;45.40;;;;;;1479946;40;20034;-65
2021/06/13 02:07:18;;;;;;;;;;;18.30;45.20;;;;;;1481211;40;19951;-65
2021/06/13 02:08:39;;;;;;;;;;;18.30;45.10;;;;;;1480897;40;19990;-65
2021/06/13 02:10:04;;;;;;;;;;;18.30;45.30;;;;;;1481823;39;19947;-65
2021/06/13 02:11:26;;;;;;;;;;;18.30;45.40;;;;;;1481685;40;19972;-65
2021/06/13 02:12:48;;;;;;;;;;;18.20;45.60;;;;;;1482028;40;20645;-65
2021/06/13 02:14:09;;;;;;;;;;;18.30;45.50;;;;;;1480351;40;19948;-65
2021/06/13 02:15:31;;;;;;;;;;;18.30;45.30;;;;;;1482147;40;19936;-65
2021/06/13 02:16:52;;;;;;;;;;;18.30;45.60;;;;;;1482040;40;19944;-65
2021/06/13 02:18:13;;;;;;;;;;;18.20;45.50;;;;;;1481400;40;19936;-65
2021/06/13 02:19:35;;;;;;;;;;;18.30;45.30;;;;;;1481632;40;20201;-65
2021/06/13 02:20:58;;;;;;;;;;;18.20;45.20;;;;;;1480913;40;19936;-65
2021/06/13 02:22:19;;;;;;;;;;;18.20;45.10;;;;;;1482089;40;19940;-65
2021/06/13 02:23:40;;;;;;;;;;;18.20;45.20;;;;;;1481734;40;19944;-65
2021/06/13 02:25:02;;;;;;;;;;;18.20;45.20;;;;;;1481851;40;20260;-65
2021/06/13 02:26:24;;;;;;;;;;;18.20;45.20;;;;;;1482722;40;19947;-65
2021/06/13 02:27:44;;;;;;;;;;;18.20;45.40;;;;;;1480618;40;19936;-65
2021/06/13 02:29:07;;;;;;;;;;;18.20;45.30;;;;;;1477342;40;19956;-65
2021/06/13 02:30:33;;;;;;;;;;;18.20;45.50;;;;;;1479835;40;19936;-65
2021/06/13 02:31:55;;;;;;;;;;;18.20;45.40;;;;;;1481717;40;20057;-65
2021/06/13 02:33:16;;;;;;;;;;;18.20;45.40;;;;;;1482166;40;19947;-65
2021/06/13 02:34:37;;;;;;;;;;;18.20;45.40;;;;;;1481983;39;19944;-65
2021/06/13 02:35:59;;;;;;;;;;;18.10;45.30;;;;;;1481564;40;19951;-65
2021/06/13 02:37:20;;;;;;;;;;;18.20;45.50;;;;;;1481231;40;19945;-65
2021/06/13 02:38:41;;;;;;;;;;;18.10;45.30;;;;;;1481492;40;20188;-65
2021/06/13 02:40:02;;;;;;;;;;;18.10;45.20;;;;;;1481802;40;19944;-65
2021/06/13 02:41:23;;;;;;;;;;;18.10;45.70;;;;;;1480621;40;20025;-65
2021/06/13 02:42:44;;;;;;;;;;;18.10;45.40;;;;;;1481356;40;19948;-65
2021/06/13 02:44:05;;;;;;;;;;;18.10;45.30;;;;;;1480771;40;19964;-65
2021/06/13 02:45:26;;;;;;;;;;;18.10;45.30;;;;;;1482123;40;19956;-65
2021/06/13 02:46:47;;;;;;;;;;;18.00;45.30;;;;;;1481155;40;20302;-65
2021/06/13 02:48:08;;;;;;;;;;;18.00;45.20;;;;;;1480762;40;19940;-65
2021/06/13 02:49:29;;;;;;;;;;;18.00;45.30;;;;;;1481675;40;19944;-65
2021/06/13 02:50:51;;;;;;;;;;;18.00;45.40;;;;;;1481010;40;19951;-65
2021/06/13 02:52:26;;;;;;;;;;;17.90;45.30;;;;;;1480543;40;19940;-65
2021/06/13 02:53:50;;;;;;;;;;;18.00;45.50;;;;;;1481824;40;19960;-65
2021/06/13 02:55:14;;;;;;;;;;;18.00;45.40;;;;;;1481346;40;19944;-65
2021/06/13 02:56:41;;;;;;;;;;;17.90;45.60;;;;;;1481507;40;21427;-66
2021/06/13 02:58:04;;;;;;;;;;;17.90;46.20;;;;;;1480735;40;19940;-65
2021/06/13 02:59:37;;;;;;;;;;;17.90;45.70;;;;;;1481155;40;19944;-65
2021/06/13 03:00:57;;;;;;;;;;;17.90;45.60;;;;;;1481171;40;19945;-65
2021/06/13 03:02:23;;;;;;;;;;;17.90;45.70;;;;;;1481463;40;19955;-65
2021/06/13 03:03:44;;;;;;;;;;;17.90;46.00;;;;;;1482073;40;20362;-65
2021/06/13 03:05:06;;;;;;;;;;;17.90;46.00;;;;;;1480633;40;19940;-65
2021/06/13 03:06:29;;;;;;;;;;;17.80;45.90;;;;;;1480534;40;20510;-65
2021/06/13 03:07:50;;;;;;;;;;;17.80;45.80;;;;;;1480373;40;19955;-65
2021/06/13 03:09:11;;;;;;;;;;;17.90;45.80;;;;;;1481732;40;19965;-65
2021/06/13 03:10:32;;;;;;;;;;;17.80;45.70;;;;;;1481793;40;19944;-66
2021/06/13 03:11:54;;;;;;;;;;;17.80;45.70;;;;;;1482179;40;20666;-65
2021/06/13 03:13:15;;;;;;;;;;;17.80;45.60;;;;;;1481999;40;19956;-65
2021/06/13 03:14:39;;;;;;;;;;;17.80;45.80;;;;;;1481255;40;20085;-65
2021/06/13 03:16:00;;;;;;;;;;;17.80;45.80;;;;;;1477433;40;19941;-65
2021/06/13 03:17:22;;;;;;;;;;;17.70;46.00;;;;;;1480236;40;19957;-65
2021/06/13 03:18:44;;;;;;;;;;;17.80;45.80;;;;;;1481054;40;19940;-65
2021/06/13 03:20:06;;;;;;;;;;;17.70;45.70;;;;;;1481140;40;19940;-65
2021/06/13 03:21:29;;;;;;;;;;;17.70;45.70;;;;;;1481199;40;19981;-65
2021/06/13 03:22:50;;;;;;;;;;;17.80;45.90;;;;;;1480713;40;19936;-65
2021/06/13 03:24:11;;;;;;;;;;;17.70;45.70;;;;;;1481595;40;19964;-65
2021/06/13 03:25:32;;;;;;;;;;;17.70;45.90;;;;;;1481214;40;19945;-66
2021/06/13 03:26:54;;;;;;;;;;;17.70;45.80;;;;;;1481670;40;19940;-65
2021/06/13 03:28:18;;;;;;;;;;;17.70;45.90;;;;;;1480836;40;19976;-65
2021/06/13 03:29:41;;;;;;;;;;;17.70;45.90;;;;;;1481724;40;19944;-65
2021/06/13 03:31:02;;;;;;;;;;;17.60;45.90;;;;;;1480755;40;19958;-65
2021/06/13 03:32:23;;;;;;;;;;;17.60;45.90;;;;;;1482117;40;20275;-65
2021/06/13 03:33:44;;;;;;;;;;;17.60;45.90;;;;;;1482342;40;19952;-65
2021/06/13 03:35:06;;;;;;;;;;;17.60;46.00;;;;;;1481199;40;20249;-65
2021/06/13 03:36:28;;;;;;;;;;;17.60;46.00;;;;;;1480956;40;19956;-65
2021/06/13 03:37:50;;;;;;;;;;;17.60;46.20;;;;;;1480658;40;20621;-65
2021/06/13 03:39:11;;;;;;;;;;;17.60;46.20;;;;;;1481971;40;19944;-65
2021/06/13 03:40:32;;;;;;;;;;;17.60;46.10;;;;;;1481302;40;20018;-65
2021/06/13 03:41:53;;;;;;;;;;;17.60;46.40;;;;;;1481177;40;20022;-65
2021/06/13 03:43:15;;;;;;;;;;;17.60;46.50;;;;;;1480753;40;19941;-65
2021/06/13 03:44:36;;;;;;;;;;;17.60;46.60;;;;;;1481932;40;19948;-65
2021/06/13 03:45:57;;;;;;;;;;;17.50;46.60;;;;;;1481763;40;20327;-65
2021/06/13 03:47:18;;;;;;;;;;;17.50;46.80;;;;;;1481079;40;20536;-65
2021/06/13 03:48:40;;;;;;;;;;;17.50;46.70;;;;;;1480817;40;19951;-65
2021/06/13 03:50:01;;;;;;;;;;;17.50;46.90;;;;;;1480464;40;19951;-65
2021/06/13 03:51:23;;;;;;;;;;;17.50;46.80;;;;;;1481041;40;19958;-65
2021/06/13 03:52:45;;;;;;;;;;;17.50;46.80;;;;;;1481915;40;19947;-65
2021/06/13 03:54:06;;;;;;;;;;;17.50;47.20;;;;;;1480808;40;20041;-66
2021/06/13 03:55:27;;;;;;;;;;;17.50;47.50;;;;;;1482677;40;19944;-65
2021/06/13 03:56:51;;;;;;;;;;;17.50;47.40;;;;;;1481704;40;19952;-65
2021/06/13 03:58:12;;;;;;;;;;;17.50;47.60;;;;;;1481167;40;19936;-65
2021/06/13 03:59:34;;;;;;;;;;;17.50;47.20;;;;;;1480995;40;20090;-65
2021/06/13 04:00:56;;;;;;;;;;;17.50;47.00;;;;;;1481399;40;20273;-65
2021/06/13 04:02:17;;;;;;;;;;;17.50;46.90;;;;;;1481540;40;20034;-65
2021/06/13 04:03:42;;;;;;;;;;;17.50;46.80;;;;;;1481410;40;19956;-65
2021/06/13 04:05:03;;;;;;;;;;;17.50;47.20;;;;;;1482280;40;19940;-66
2021/06/13 04:06:25;;;;;;;;;;;17.50;46.60;;;;;;1480926;40;20008;-65
2021/06/13 04:07:46;;;;;;;;;;;17.50;46.70;;;;;;1481121;40;20257;-64
2021/06/13 04:09:08;;;;;;;;;;;17.50;46.60;;;;;;1481056;40;20025;-64
2021/06/13 04:10:30;;;;;;;;;;;17.50;47.00;;;;;;1481810;40;19952;-66
2021/06/13 04:11:51;;;;;;;;;;;17.50;47.10;;;;;;1481022;40;19940;-64
2021/06/13 04:13:13;;;;;;;;;;;17.40;47.20;;;;;;1480843;40;19940;-65
2021/06/13 04:14:34;;;;;;;;;;;17.50;47.10;;;;;;1482184;40;19981;-64
2021/06/13 04:15:55;;;;;;;;;;;17.40;46.90;;;;;;1481534;40;19932;-66
2021/06/13 04:17:19;;;;;;;;;;;17.50;47.00;;;;;;1482141;40;19932;-66
2021/06/13 04:18:41;;;;;;;;;;;17.40;46.80;;;;;;1481001;40;19947;-66
2021/06/13 04:20:03;;;;;;;;;;;17.40;47.10;;;;;;1480795;40;21155;-66
2021/06/13 04:21:25;;;;;;;;;;;17.50;47.50;;;;;;1480999;40;19940;-66
2021/06/13 04:22:46;;;;;;;;;;;17.40;47.40;;;;;;1481202;40;20029;-66
2021/06/13 04:24:10;;;;;;;;;;;17.40;47.20;;;;;;1481512;40;19948;-66
2021/06/13 04:25:31;;;;;;;;;;;17.50;47.30;;;;;;1480496;40;20512;-66
2021/06/13 04:26:55;;;;;;;;;;;17.40;47.60;;;;;;1480188;40;19936;-64
2021/06/13 04:28:16;;;;;;;;;;;17.40;47.70;;;;;;1479834;40;19944;-64
2021/06/13 04:29:37;;;;;;;;;;;17.40;47.90;;;;;;1480381;40;20278;-66
2021/06/13 04:31:01;;;;;;;;;;;17.40;48.50;;;;;;1481305;40;20278;-66
2021/06/13 04:32:21;;;;;;;;;;;17.40;48.00;;;;;;1480840;40;19944;-66
2021/06/13 04:33:47;;;;;;;;;;;17.50;48.10;;;;;;1480893;40;20044;-66
2021/06/13 04:35:08;;;;;;;;;;;17.50;48.20;;;;;;1481221;40;19987;-66
2021/06/13 04:36:29;;;;;;;;;;;17.50;48.10;;;;;;1480880;40;19947;-66
2021/06/13 04:37:50;;;;;;;;;;;17.50;48.10;;;;;;1481356;40;19951;-66
2021/06/13 04:39:11;;;;;;;;;;;17.50;48.00;;;;;;1480399;40;20004;-66
2021/06/13 04:40:31;;;;;;;;;;;17.50;48.20;;;;;;1480752;40;20583;-66
2021/06/13 04:41:53;;;;;;;;;;;17.50;48.10;;;;;;1481163;40;19948;-66
2021/06/13 04:43:14;;;;;;;;;;;17.50;48.10;;;;;;1480180;40;19940;-66
2021/06/13 04:44:36;;;;;;;;;;;17.50;48.20;;;;;;1481137;40;19944;-66
2021/06/13 04:45:56;;;;;;;;;;;17.50;48.00;;;;;;1481852;40;20268;-66
2021/06/13 04:47:17;;;;;;;;;;;17.50;47.80;;;;;;1480646;40;20394;-66
2021/06/13 04:48:38;;;;;;;;;;;17.50;47.90;;;;;;1481093;40;19974;-66
2021/06/13 04:49:59;;;;;;;;;;;17.50;48.10;;;;;;1481290;40;20062;-66
2021/06/13 04:51:21;;;;;;;;;;;17.50;48.20;;;;;;1481146;40;19944;-66
2021/06/13 04:52:42;;;;;;;;;;;17.50;48.40;;;;;;1481614;40;19944;-66
2021/06/13 04:54:22;;;;;;;;;;;17.50;48.40;;;;;;1481477;40;19945;-66
2021/06/13 04:55:49;;;;;;;;;;;17.50;48.20;;;;;;1481188;40;20783;-66
2021/06/13 04:57:16;;;;;;;;;;;17.50;48.30;;;;;;1481911;40;19976;-66
2021/06/13 04:58:37;;;;;;;;;;;17.50;47.80;;;;;;1480965;40;19948;-65
2021/06/13 04:59:58;;;;;;;;;;;17.50;48.00;;;;;;1481611;40;20011;-66
2021/06/13 05:01:19;;;;;;;;;;;17.50;47.60;;;;;;1481152;40;19947;-66
2021/06/13 05:02:40;;;;;;;;;;;17.60;47.70;;;;;;1481258;40;20004;-66
2021/06/13 05:04:01;;;;;;;;;;;17.50;47.70;;;;;;1480433;40;19948;-66
2021/06/13 05:05:22;;;;;;;;;;;17.50;47.50;;;;;;1481314;40;20041;-66
2021/06/13 05:06:44;;;;;;;;;;;17.50;47.50;;;;;;1480076;40;19950;-67
2021/06/13 05:08:05;;;;;;;;;;;17.60;47.60;;;;;;1481064;40;20373;-66
2021/06/13 05:09:25;;;;;;;;;;;17.60;47.70;;;;;;1481292;40;20216;-66
2021/06/13 05:10:46;;;;;;;;;;;17.60;47.80;;;;;;1480229;40;19936;-65
2021/06/13 05:12:07;;;;;;;;;;;17.60;47.70;;;;;;1480512;40;19947;-66
2021/06/13 05:13:28;;;;;;;;;;;17.60;47.90;;;;;;1480123;40;20170;-66
2021/06/13 05:14:49;;;;;;;;;;;17.60;47.90;;;;;;1481818;40;19940;-66
2021/06/13 05:16:09;;;;;;;;;;;17.60;48.00;;;;;;1480728;40;19951;-66
2021/06/13 05:17:30;;;;;;;;;;;17.60;48.20;;;;;;1481308;40;19944;-66
2021/06/13 05:18:51;;;;;;;;;;;17.60;48.30;;;;;;1481536;40;19940;-66
2021/06/13 05:20:12;;;;;;;;;;;17.60;48.20;;;;;;1480963;40;19936;-66
2021/06/13 05:21:33;;;;;;;;;;;17.60;48.20;;;;;;1481391;40;20228;-66
2021/06/13 05:23:01;;;;;;;;;;;17.60;48.10;;;;;;1480418;40;19952;-66
2021/06/13 05:24:22;;;;;;;;;;;17.70;48.30;;;;;;1480999;40;20020;-66
2021/06/13 05:25:43;;;;;;;;;;;17.70;48.50;;;;;;1479919;40;19947;-66
2021/06/13 05:27:04;;;;;;;;;;;17.70;48.60;;;;;;1480002;40;19994;-65
2021/06/13 05:28:25;;;;;;;;;;;17.70;48.60;;;;;;1480673;40;19948;-66
2021/06/13 05:29:45;;;;;;;;;;;17.70;48.60;;;;;;1481870;40;20073;-66
2021/06/13 05:31:06;;;;;;;;;;;17.70;48.70;;;;;;1481003;40;19951;-66
2021/06/13 05:32:27;;;;;;;;;;;17.70;48.70;;;;;;1481432;40;19951;-66
2021/06/13 05:33:48;;;;;;;;;;;17.70;48.60;;;;;;1480989;40;20037;-66
2021/06/13 05:35:09;;;;;;;;;;;17.80;48.60;;;;;;1480693;40;19958;-66
2021/06/13 05:36:30;;;;;;;;;;;17.80;48.50;;;;;;1480988;40;19947;-66
2021/06/13 05:37:50;;;;;;;;;;;17.80;48.40;;;;;;1479814;40;19936;-66
2021/06/13 05:39:11;;;;;;;;;;;17.80;48.70;;;;;;1481581;40;19940;-65
2021/06/13 05:40:33;;;;;;;;;;;17.80;49.00;;;;;;1481119;40;19944;-66
2021/06/13 05:41:53;;;;;;;;;;;17.80;48.80;;;;;;1481431;40;19943;-66
2021/06/13 05:43:14;;;;;;;;;;;17.80;48.60;;;;;;1480353;40;19940;-66
2021/06/13 05:44:35;;;;;;;;;;;17.90;48.80;;;;;;1481177;40;19947;-66
2021/06/13 05:45:58;;;;;;;;;;;17.90;49.60;;;;;;1481960;40;19936;-66
2021/06/13 05:47:19;;;;;;;;;;;17.90;48.90;;;;;;1480140;40;19940;-66
2021/06/13 05:48:40;;;;;;;;;;;17.90;48.70;;;;;;1479976;40;20335;-66
2021/06/13 05:50:00;;;;;;;;;;;17.90;48.60;;;;;;1480518;40;20028;-66
2021/06/13 05:51:21;;;;;;;;;;;17.90;48.70;;;;;;1481123;40;19945;-66
2021/06/13 05:52:42;;;;;;;;;;;18.00;48.90;;;;;;1481034;40;19944;-66
2021/06/13 05:54:03;;;;;;;;;;;17.90;48.70;;;;;;1480808;40;20070;-66
2021/06/13 05:55:24;;;;;;;;;;;18.00;48.70;;;;;;1480666;40;20025;-66
2021/06/13 05:56:45;;;;;;;;;;;18.00;48.60;;;;;;1481021;40;19948;-66
2021/06/13 05:58:05;;;;;;;;;;;18.00;48.60;;;;;;1481109;40;20021;-67
2021/06/13 05:59:26;;;;;;;;;;;18.00;48.70;;;;;;1481332;40;19966;-67
2021/06/13 06:00:47;;;;;;;;;;;18.00;48.90;;;;;;1480996;40;19947;-66
2021/06/13 06:02:08;;;;;;;;;;;18.10;48.90;;;;;;1480828;40;20021;-67
2021/06/13 06:03:29;;;;;;;;;;;18.10;49.00;;;;;;1481580;40;19959;-67
2021/06/13 06:04:50;;;;;;;;;;;18.10;49.10;;;;;;1480429;40;19948;-66
2021/06/13 06:06:10;;;;;;;;;;;18.10;49.10;;;;;;1481255;40;20002;-64
2021/06/13 06:07:31;;;;;;;;;;;18.10;49.10;;;;;;1481514;40;19954;-66
2021/06/13 06:08:52;;;;;;;;;;;18.10;49.00;;;;;;1480987;40;19936;-66
2021/06/13 06:10:13;;;;;;;;;;;18.20;49.00;;;;;;1481801;40;20269;-66
2021/06/13 06:11:39;;;;;;;;;;;18.20;49.00;;;;;;1480887;40;20731;-66
2021/06/13 06:13:01;;;;;;;;;;;18.20;48.90;;;;;;1480843;40;20025;-66
2021/06/13 06:14:22;;;;;;;;;;;18.20;48.90;;;;;;1480858;40;19940;-66
2021/06/13 06:15:43;;;;;;;;;;;18.20;48.80;;;;;;1481355;40;19945;-66
2021/06/13 06:17:04;;;;;;;;;;;18.20;48.80;;;;;;1481777;40;19940;-66
2021/06/13 06:18:25;;;;;;;;;;;18.30;48.90;;;;;;1479923;40;20291;-66
2021/06/13 06:19:45;;;;;;;;;;;18.30;48.90;;;;;;1481193;40;19958;-66
2021/06/13 06:21:06;;;;;;;;;;;18.30;48.90;;;;;;1481274;40;19980;-66
2021/06/13 06:22:27;;;;;;;;;;;18.30;48.90;;;;;;1482345;40;19943;-64
2021/06/13 06:23:48;;;;;;;;;;;18.40;48.90;;;;;;1481862;40;19976;-67
2021/06/13 06:25:09;;;;;;;;;;;18.40;48.90;;;;;;1482250;40;20004;-66
2021/06/13 06:26:30;;;;;;;;;;;18.40;49.00;;;;;;1482392;40;19948;-67
2021/06/13 06:27:53;;;;;;;;;;;18.40;48.90;;;;;;1481358;40;19948;-66
2021/06/13 06:29:14;;;;;;;;;;;18.40;49.00;;;;;;1481696;40;20021;-66
2021/06/13 06:30:37;;;;;;;;;;;18.50;49.00;;;;;;1481947;40;20025;-66
2021/06/13 06:31:58;;;;;;;;;;;18.50;48.90;;;;;;1481741;40;19964;-66
2021/06/13 06:33:19;;;;;;;;;;;18.50;48.90;;;;;;1481489;40;19940;-66
2021/06/13 06:34:40;;;;;;;;;;;18.60;48.90;;;;;;1480978;40;20037;-66
2021/06/13 06:36:01;;;;;;;;;;;18.50;48.80;;;;;;1481274;40;19948;-66
2021/06/13 06:37:22;;;;;;;;;;;18.60;48.90;;;;;;1482526;40;20028;-66
2021/06/13 06:38:43;;;;;;;;;;;18.60;48.90;;;;;;1481197;40;19995;-66
2021/06/13 06:40:04;;;;;;;;;;;18.60;48.90;;;;;;1481585;40;19972;-66
2021/06/13 06:41:25;;;;;;;;;;;18.60;48.90;;;;;;1481784;40;20764;-66
2021/06/13 06:42:46;;;;;;;;;;;18.70;49.00;;;;;;1483662;40;19936;-66
2021/06/13 06:44:07;;;;;;;;;;;18.70;48.90;;;;;;1480675;40;19972;-66
2021/06/13 06:45:28;;;;;;;;;;;18.70;48.90;;;;;;1482793;40;19936;-66
2021/06/13 06:46:49;;;;;;;;;;;18.70;48.90;;;;;;1482524;40;19939;-66
2021/06/13 06:48:10;;;;;;;;;;;18.80;48.90;;;;;;1481753;40;19952;-66
2021/06/13 06:49:31;;;;;;;;;;;18.80;48.90;;;;;;1483414;40;20025;-66
2021/06/13 06:50:52;;;;;;;;;;;18.90;48.90;;;;;;1478709;40;19936;-66
2021/06/13 06:52:13;;;;;;;;;;;18.90;48.80;;;;;;1480947;40;19995;-66
2021/06/13 06:53:33;;;;;;;;;;;18.90;48.80;;;;;;1482472;40;19959;-65
2021/06/13 06:54:54;;;;;;;;;;;19.00;48.80;;;;;;1481211;40;19974;-66
2021/06/13 06:56:15;;;;;;;;;;;19.00;48.80;;;;;;1483178;40;19941;-66
2021/06/13 06:57:38;;;;;;;;;;;19.00;48.80;;;;;;1483074;40;20260;-66
2021/06/13 06:58:59;;;;;;;;;;;19.00;48.80;;;;;;1482233;40;19947;-66
2021/06/13 07:00:19;;;;;;;;;;;19.00;48.80;;;;;;1482261;40;19933;-66
2021/06/13 07:01:40;;;;;;;;;;;19.10;48.80;;;;;;1481172;40;20025;-66
2021/06/13 07:03:01;;;;;;;;;;;19.10;48.70;;;;;;1482786;40;20017;-66
2021/06/13 07:04:22;;;;;;;;;;;19.10;48.70;;;;;;1481199;40;19973;-66
2021/06/13 07:05:43;;;;;;;;;;;19.10;48.90;;;;;;1482311;40;19936;-66
2021/06/13 07:07:03;;;;;;;;;;;19.20;48.70;;;;;;1483364;40;19972;-66
2021/06/13 07:08:24;;;;;;;;;;;19.20;48.60;;;;;;1481752;40;19981;-66
2021/06/13 07:09:45;;;;;;;;;;;19.20;48.60;;;;;;1483622;40;19946;-66
2021/06/13 07:11:06;;;;;;;;;;;19.20;48.50;;;;;;1480370;40;19932;-66
2021/06/13 07:12:28;;;;;;;;;;;19.20;48.50;;;;;;1479571;40;19940;-66
2021/06/13 07:13:49;;;;;;;;;;;19.30;48.50;;;;;;1480676;40;19940;-66
2021/06/13 07:15:10;;;;;;;;;;;19.30;48.50;;;;;;1481041;40;19936;-66
2021/06/13 07:16:31;;;;;;;;;;;19.30;48.50;;;;;;1479596;40;19936;-66
2021/06/13 07:17:53;;;;;;;;;;;19.30;48.40;;;;;;1479151;40;20176;-66
2021/06/13 07:19:14;;;;;;;;;;;19.30;48.40;;;;;;1481149;40;19933;-66
2021/06/13 07:20:36;;;;;;;;;;;19.40;48.50;;;;;;1480711;40;20031;-66
2021/06/13 07:21:57;;;;;;;;;;;19.40;48.50;;;;;;1480678;40;19937;-66
2021/06/13 07:23:17;;;;;;;;;;;19.40;48.50;;;;;;1481033;40;19941;-66
2021/06/13 07:24:38;;;;;;;;;;;19.40;48.50;;;;;;1481731;40;20445;-66
2021/06/13 07:25:59;;;;;;;;;;;19.40;48.50;;;;;;1481307;40;20233;-66
2021/06/13 07:27:20;;;;;;;;;;;19.40;48.50;;;;;;1482803;40;19943;-66
2021/06/13 07:28:41;;;;;;;;;;;19.50;48.50;;;;;;1482316;40;19944;-66
2021/06/13 07:30:03;;;;;;;;;;;19.50;48.40;;;;;;1481223;40;20180;-66
2021/06/13 07:31:24;;;;;;;;;;;19.50;48.30;;;;;;1482367;40;19937;-67
2021/06/13 07:32:45;;;;;;;;;;;19.50;48.30;;;;;;1481297;40;20460;-66
2021/06/13 07:34:06;;;;;;;;;;;19.60;48.20;;;;;;1482662;40;19952;-66
2021/06/13 07:35:26;;;;;;;;;;;19.60;48.20;;;;;;1480499;40;19974;-66
2021/06/13 07:36:47;;;;;;;;;;;19.60;48.20;;;;;;1480336;40;19944;-65
2021/06/13 07:38:08;;;;;;;;;;;19.60;48.20;;;;;;1479968;40;19937;-66
2021/06/13 07:39:30;;;;;;;;;;;19.60;48.20;;;;;;1480833;40;19963;-66
2021/06/13 07:40:51;;;;;;;;;;;19.70;48.20;;;;;;1481074;40;19944;-66
2021/06/13 07:42:11;;;;;;;;;;;19.70;48.70;;;;;;1482861;40;19951;-66
2021/06/13 07:43:32;;;;;;;;;;;19.70;48.20;;;;;;1481945;40;20237;-66
2021/06/13 07:44:53;;;;;;;;;;;19.70;48.00;;;;;;1482456;40;19932;-66
2021/06/13 07:46:14;;;;;;;;;;;19.70;48.00;;;;;;1482303;40;20222;-66
2021/06/13 07:47:35;;;;;;;;;;;19.70;48.00;;;;;;1482600;40;19932;-66
2021/06/13 07:48:57;;;;;;;;;;;19.80;48.00;;;;;;1478035;40;20230;-66
2021/06/13 07:50:18;;;;;;;;;;;19.80;48.00;;;;;;1481258;40;19972;-66
2021/06/13 07:51:39;;;;;;;;;;;19.80;48.00;;;;;;1482278;40;19939;-66
2021/06/13 07:53:00;;;;;;;;;;;19.80;47.90;;;;;;1481879;40;19944;-66
2021/06/13 07:54:21;;;;;;;;;;;19.90;47.90;;;;;;1482099;40;20018;-66
2021/06/13 07:55:42;;;;;;;;;;;19.90;47.90;;;;;;1482692;40;20025;-66